createdAt,value
2018-06-08T00:01:17.456Z,14.07
2018-06-08T00:03:46.227Z,13.67
2018-06-08T00:06:14.910Z,13.50
2018-06-08T00:08:43.545Z,13.25
2018-06-08T00:11:12.238Z,13.80
2018-06-08T00:13:40.972Z,13.18
2018-06-08T00:16:09.809Z,14.35
2018-06-08T00:18:39.714Z,13.72
2018-06-08T00:21:08.659Z,14.58
2018-06-08T00:23:37.523Z,14.35
2018-06-08T00:26:06.530Z,14.33
2018-06-08T00:28:35.298Z,14.75
2018-06-08T00:31:04.116Z,14.97
2018-06-08T00:33:32.829Z,16.23
2018-06-08T00:36:01.672Z,15.85
2018-06-08T00:38:30.425Z,16.20
2018-06-08T00:40:59.282Z,17.00
2018-06-08T00:43:28.130Z,16.95
2018-06-08T00:45:56.854Z,16.57
2018-06-08T00:48:25.995Z,16.57
2018-06-08T00:50:54.949Z,16.13
2018-06-08T00:53:24.966Z,16.17
2018-06-08T00:55:53.740Z,17.23
2018-06-08T00:58:22.632Z,17.07
2018-06-08T01:00:51.295Z,16.85
2018-06-08T01:03:20.206Z,17.10
2018-06-08T01:05:48.967Z,17.40
2018-06-08T01:08:17.767Z,17.20
2018-06-08T01:10:46.544Z,17.65
2018-06-08T01:13:15.321Z,17.10
2018-06-08T01:15:44.141Z,16.60
2018-06-08T01:18:13.844Z,16.75
2018-06-08T01:20:42.639Z,17.27
2018-06-08T01:23:11.518Z,17.23
2018-06-08T01:25:40.504Z,17.23
2018-06-08T01:28:09.543Z,17.17
2018-06-08T01:30:38.373Z,17.32
2018-06-08T01:33:07.272Z,17.80
2018-06-08T01:35:35.994Z,18.05
2018-06-08T01:38:04.806Z,18.37
2018-06-08T01:40:33.769Z,17.73
2018-06-08T01:43:02.586Z,18.70
2018-06-08T01:45:31.583Z,17.80
2018-06-08T01:48:00.320Z,18.73
2018-06-08T01:50:29.549Z,18.17
2018-06-08T01:52:58.246Z,17.07
2018-06-08T01:55:26.943Z,17.07
2018-06-08T01:57:55.958Z,16.27
2018-06-08T02:00:24.697Z,16.53
2018-06-08T02:02:53.810Z,16.65
2018-06-08T02:05:22.618Z,16.17
2018-06-08T02:07:51.320Z,16.73
2018-06-08T02:10:20.146Z,17.25
2018-06-08T02:12:48.828Z,16.52
2018-06-08T02:15:17.714Z,15.93
2018-06-08T02:17:46.468Z,15.78
2018-06-08T02:20:15.270Z,16.20
2018-06-08T02:22:44.031Z,14.75
2018-06-08T02:25:12.994Z,14.23
2018-06-08T02:27:41.671Z,14.60
2018-06-08T02:30:10.390Z,15.18
2018-06-08T02:32:39.112Z,15.88
2018-06-08T02:35:07.755Z,14.73
2018-06-08T02:37:36.639Z,15.58
2018-06-08T02:40:05.377Z,17.25
2018-06-08T02:42:34.129Z,17.62
2018-06-08T02:45:02.887Z,17.05
2018-06-08T02:47:31.698Z,16.75
2018-06-08T02:50:00.416Z,16.87
2018-06-08T02:52:29.101Z,17.12
2018-06-08T02:54:58.030Z,17.42
2018-06-08T02:57:26.704Z,17.70
2018-06-08T02:59:55.373Z,17.43
2018-06-08T03:02:24.283Z,16.85
2018-06-08T03:04:53.131Z,17.80
2018-06-08T03:07:21.931Z,16.60
2018-06-08T03:09:50.541Z,17.43
2018-06-08T03:12:19.636Z,18.02
2018-06-08T03:14:48.765Z,17.35
2018-06-08T03:17:17.625Z,16.95
2018-06-08T03:19:46.303Z,17.65
2018-06-08T03:22:14.907Z,17.57
2018-06-08T03:24:43.864Z,17.70
2018-06-08T03:27:12.629Z,17.75
2018-06-08T03:29:42.017Z,18.45
2018-06-08T03:32:12.615Z,17.60
2018-06-08T03:34:41.367Z,18.73
2018-06-08T03:37:10.099Z,18.23
2018-06-08T03:39:38.945Z,19.60
2018-06-08T03:42:07.628Z,17.92
2018-06-08T03:44:36.307Z,17.60
2018-06-08T03:47:05.211Z,18.30
2018-06-08T03:49:34.292Z,18.25
2018-06-08T03:52:03.284Z,18.60
2018-06-08T03:54:32.048Z,18.90
2018-06-08T03:57:00.756Z,18.35
2018-06-08T03:59:29.610Z,18.17
2018-06-08T04:01:58.527Z,17.48
2018-06-08T04:04:27.461Z,18.37
2018-06-08T04:06:56.333Z,17.70
2018-06-08T04:09:25.204Z,18.70
2018-06-08T04:11:53.936Z,19.93
2018-06-08T04:14:22.905Z,20.50
2018-06-08T04:16:51.671Z,18.50
2018-06-08T04:19:20.380Z,18.42
2018-06-08T04:21:49.094Z,18.50
2018-06-08T04:24:17.838Z,18.50
2018-06-08T04:26:46.685Z,18.27
2018-06-08T04:29:15.905Z,19.20
2018-06-08T04:31:44.789Z,19.17
2018-06-08T04:34:13.682Z,18.37
2018-06-08T04:36:42.437Z,17.55
2018-06-08T04:39:11.055Z,18.92
2018-06-08T04:41:39.876Z,18.57
2018-06-08T04:44:08.744Z,18.47
2018-06-08T04:46:37.626Z,18.12
2018-06-08T04:49:06.633Z,19.37
2018-06-08T04:51:35.302Z,18.92
2018-06-08T04:54:04.038Z,18.65
2018-06-08T04:59:20.725Z,18.65
2018-06-08T05:01:50.055Z,19.23
2018-06-08T05:04:18.794Z,18.75
2018-06-08T05:06:47.506Z,18.50
2018-06-08T05:09:16.574Z,18.37
2018-06-08T05:11:45.280Z,17.80
2018-06-08T05:14:14.156Z,17.57
2018-06-08T05:16:42.925Z,17.23
2018-06-08T05:19:11.693Z,17.87
2018-06-08T05:21:40.510Z,17.12
2018-06-08T05:24:09.231Z,20.57
2018-06-08T05:26:37.899Z,20.20
2018-06-08T05:29:06.943Z,17.92
2018-06-08T05:31:35.759Z,18.50
2018-06-08T05:34:04.698Z,19.67
2018-06-08T05:36:33.468Z,19.73
2018-06-08T05:39:02.324Z,21.00
2018-06-08T05:41:31.089Z,19.23
2018-06-08T05:44:00.381Z,19.10
2018-06-08T05:46:29.076Z,19.05
2018-06-08T05:48:57.956Z,19.27
2018-06-08T05:51:27.551Z,20.03
2018-06-08T05:53:56.487Z,20.45
2018-06-08T05:56:24.940Z,21.10
2018-06-08T05:58:53.988Z,21.10
2018-06-08T06:01:22.862Z,20.57
2018-06-08T06:04:00.159Z,20.45
2018-06-08T06:06:37.377Z,21.70
2018-06-08T06:09:08.951Z,22.22
2018-06-08T06:11:39.119Z,20.83
2018-06-08T06:14:07.944Z,20.05
2018-06-08T06:16:37.206Z,20.12
2018-06-08T06:19:06.169Z,22.27
2018-06-08T06:21:38.055Z,21.87
2018-06-08T06:24:07.193Z,23.12
2018-06-08T06:26:35.696Z,24.02
2018-06-08T06:29:04.650Z,24.55
2018-06-08T06:31:33.441Z,23.73
2018-06-08T06:34:02.561Z,24.53
2018-06-08T06:36:31.454Z,24.17
2018-06-08T06:39:06.935Z,23.87
2018-06-08T06:41:37.405Z,26.55
2018-06-08T06:44:05.907Z,28.65
2018-06-08T06:46:34.634Z,27.85
2018-06-08T06:49:03.515Z,27.27
2018-06-08T06:51:32.360Z,27.62
2018-06-08T06:54:01.185Z,26.90
2018-06-08T06:56:29.977Z,26.35
2018-06-08T06:58:58.783Z,23.75
2018-06-08T07:01:27.727Z,24.00
2018-06-08T07:03:56.825Z,23.47
2018-06-08T07:06:25.610Z,22.93
2018-06-08T07:08:54.415Z,22.15
2018-06-08T07:11:23.386Z,19.45
2018-06-08T07:13:52.340Z,16.80
2018-06-08T07:16:21.178Z,16.77
2018-06-08T07:18:50.130Z,16.60
2018-06-08T07:21:19.033Z,16.27
2018-06-08T07:23:47.771Z,16.87
2018-06-08T07:26:17.441Z,18.57
2018-06-08T07:28:46.208Z,16.10
2018-06-08T07:31:15.113Z,17.02
2018-06-08T07:33:43.868Z,28.17
2018-06-08T07:36:12.842Z,17.40
2018-06-08T07:38:41.356Z,21.20
2018-06-08T07:41:10.246Z,17.67
2018-06-08T07:43:40.058Z,17.40
2018-06-08T07:46:09.165Z,18.35
2018-06-08T07:48:38.217Z,18.20
2018-06-08T07:51:07.608Z,15.68
2018-06-08T07:53:36.076Z,15.78
2018-06-08T07:56:04.898Z,16.05
2018-06-08T07:58:33.386Z,16.42
2018-06-08T08:01:02.340Z,16.15
2018-06-08T08:03:31.055Z,16.27
2018-06-08T08:05:59.799Z,16.17
2018-06-08T08:08:30.456Z,16.23
2018-06-08T08:10:59.220Z,15.90
2018-06-08T08:13:28.137Z,16.30
2018-06-08T08:15:57.054Z,15.68
2018-06-08T08:18:26.033Z,16.77
2018-06-08T08:20:57.379Z,15.93
2018-06-08T08:23:31.062Z,18.25
2018-06-08T08:26:00.231Z,17.65
2018-06-08T08:28:29.291Z,15.00
2018-06-08T08:30:57.978Z,15.55
2018-06-08T08:33:26.915Z,15.85
2018-06-08T08:35:56.092Z,16.83
2018-06-08T08:38:25.606Z,16.30
2018-06-08T08:40:54.772Z,14.65
2018-06-08T08:43:28.207Z,14.33
2018-06-08T08:45:57.078Z,17.57
2018-06-08T08:48:25.528Z,16.62
2018-06-08T08:50:54.558Z,14.23
2018-06-08T08:53:29.821Z,13.53
2018-06-08T08:56:08.760Z,11.33
2018-06-08T08:58:37.714Z,11.65
2018-06-08T09:01:06.192Z,12.73
2018-06-08T09:03:35.148Z,15.97
2018-06-08T09:06:04.187Z,13.48
2018-06-08T09:08:32.893Z,10.58
2018-06-08T09:11:01.898Z,11.67
2018-06-08T09:13:30.770Z,13.68
2018-06-08T09:15:59.866Z,15.70
2018-06-08T09:18:36.869Z,15.70
2018-06-08T09:21:13.946Z,16.37
2018-06-08T09:23:43.200Z,17.02
2018-06-08T09:26:12.201Z,15.25
2018-06-08T09:28:41.250Z,12.98
2018-06-08T09:31:10.400Z,14.05
2018-06-08T09:33:39.174Z,17.40
2018-06-08T09:36:08.322Z,15.58
2018-06-08T09:38:37.411Z,21.77
2018-06-08T09:41:09.681Z,12.13
2018-06-08T09:43:41.207Z,13.90
2018-06-08T09:46:40.589Z,15.85
2018-06-08T09:49:11.500Z,15.90
2018-06-08T09:55:08.725Z,10.88
2018-06-08T09:57:38.527Z,11.05
2018-06-08T10:00:08.523Z,9.65
2018-06-08T10:02:37.766Z,9.05
2018-06-08T10:05:07.033Z,10.30
2018-06-08T10:07:37.946Z,8.77
2018-06-08T10:10:07.315Z,7.97
2018-06-08T10:12:36.398Z,7.90
2018-06-08T10:15:05.551Z,8.83
2018-06-08T10:17:37.670Z,8.53
2018-06-08T10:20:13.147Z,9.33
2018-06-08T10:23:26.462Z,8.30
2018-06-08T10:26:22.467Z,9.15
2018-06-08T10:29:09.575Z,15.38
2018-06-08T10:31:47.228Z,11.97
2018-06-08T10:34:16.404Z,8.70
2018-06-08T10:36:45.244Z,8.73
2018-06-08T10:39:14.218Z,6.78
2018-06-08T10:41:43.024Z,7.03
2018-06-08T10:44:12.388Z,7.70
2018-06-08T10:46:41.819Z,8.08
2018-06-08T10:49:10.926Z,8.70
2018-06-08T10:51:40.096Z,7.78
2018-06-08T10:54:09.225Z,8.85
2018-06-08T10:56:38.050Z,8.25
2018-06-08T10:59:07.374Z,6.90
2018-06-08T11:01:36.395Z,7.30
2018-06-08T11:04:04.686Z,6.62
2018-06-08T11:06:33.548Z,8.88
2018-06-08T11:09:02.291Z,7.33
2018-06-08T11:11:30.988Z,7.05
2018-06-08T11:13:59.957Z,6.70
2018-06-08T11:16:28.761Z,8.00
2018-06-08T11:18:57.743Z,7.58
2018-06-08T11:21:27.667Z,5.97
2018-06-08T11:23:57.124Z,6.95
2018-06-08T11:26:26.104Z,7.83
2018-06-08T11:28:54.808Z,6.33
2018-06-08T11:31:23.573Z,5.70
2018-06-08T11:33:52.326Z,6.45
2018-06-08T11:36:21.230Z,7.03
2018-06-08T11:38:50.633Z,6.83
2018-06-08T11:41:19.358Z,6.25
2018-06-08T11:43:48.093Z,7.50
2018-06-08T11:46:16.545Z,8.17
2018-06-08T11:48:45.524Z,5.60
2018-06-08T11:51:25.734Z,4.75
2018-06-08T11:54:04.994Z,12.73
2018-06-08T11:56:35.783Z,14.43
2018-06-08T11:59:04.223Z,18.15
2018-06-08T12:01:33.474Z,6.60
2018-06-08T12:04:02.384Z,7.08
2018-06-08T12:06:33.319Z,8.95
2018-06-08T12:09:02.384Z,8.43
2018-06-08T12:11:32.190Z,7.12
2018-06-08T12:14:01.028Z,6.03
2018-06-08T12:16:29.782Z,5.92
2018-06-08T12:18:58.570Z,4.85
2018-06-08T12:21:27.388Z,6.37
2018-06-08T12:23:55.832Z,5.03
2018-06-08T12:26:24.757Z,6.05
2018-06-08T12:28:53.643Z,6.87
2018-06-08T12:31:22.406Z,3.77
2018-06-08T12:33:51.133Z,4.72
2018-06-08T12:36:20.038Z,4.90
2018-06-08T12:38:49.663Z,5.07
2018-06-08T12:41:18.574Z,4.05
2018-06-08T12:43:47.530Z,4.30
2018-06-08T12:46:16.378Z,6.22
2018-06-08T12:48:45.051Z,4.30
2018-06-08T12:51:14.196Z,3.95
2018-06-08T12:53:43.036Z,5.10
2018-06-08T12:56:11.771Z,4.83
2018-06-08T12:58:40.474Z,6.42
2018-06-08T13:01:29.202Z,6.58
2018-06-08T13:03:57.892Z,6.90
2018-06-08T13:06:33.248Z,4.78
2018-06-08T13:09:02.088Z,4.65
2018-06-08T13:11:31.271Z,5.40
2018-06-08T13:14:09.850Z,3.70
2018-06-08T13:16:39.014Z,3.62
2018-06-08T13:19:08.077Z,4.10
2018-06-08T13:21:36.797Z,4.13
2018-06-08T13:24:05.643Z,5.90
2018-06-08T13:26:34.444Z,5.60
2018-06-08T13:29:03.446Z,4.60
2018-06-08T13:31:32.265Z,5.42
2018-06-08T13:34:01.563Z,6.45
2018-06-08T13:36:36.838Z,5.70
2018-06-08T13:39:08.120Z,4.47
2018-06-08T13:41:36.715Z,5.35
2018-06-08T13:44:05.166Z,6.05
2018-06-08T13:46:45.318Z,5.97
2018-06-08T13:49:14.202Z,5.55
2018-06-08T13:51:43.342Z,10.35
2018-06-08T13:54:12.087Z,8.25
2018-06-08T13:56:40.719Z,7.45
2018-06-08T13:59:09.451Z,7.22
2018-06-08T14:01:38.206Z,4.87
2018-06-08T14:04:07.285Z,6.05
2018-06-08T14:06:36.064Z,4.22
2018-06-08T14:09:06.261Z,5.92
2018-06-08T14:11:35.074Z,5.07
2018-06-08T14:14:04.631Z,4.60
2018-06-08T14:16:33.335Z,3.67
2018-06-08T14:19:02.011Z,4.25
2018-06-08T14:21:40.355Z,33.48
2018-06-08T14:24:27.102Z,9.28
2018-06-08T14:26:56.315Z,8.85
2018-06-08T14:29:25.017Z,6.93
2018-06-08T14:31:53.840Z,6.20
2018-06-08T14:34:23.439Z,6.00
2018-06-08T14:36:52.274Z,5.58
2018-06-08T14:39:21.183Z,8.68
2018-06-08T14:41:49.951Z,7.95
2018-06-08T14:44:18.422Z,7.20
2018-06-08T14:46:47.168Z,6.10
2018-06-08T14:49:16.008Z,6.97
2018-06-08T14:51:44.932Z,6.85
2018-06-08T14:54:13.746Z,6.83
2018-06-08T14:56:42.533Z,5.27
2018-06-08T14:59:11.401Z,6.85
2018-06-08T15:01:40.161Z,20.32
2018-06-08T15:04:09.030Z,7.58
2018-06-08T15:06:37.979Z,7.95
2018-06-08T15:09:07.620Z,5.42
2018-06-08T15:11:36.186Z,5.30
2018-06-08T15:14:04.839Z,11.18
2018-06-08T15:16:33.298Z,8.13
2018-06-08T15:19:01.993Z,4.80
2018-06-08T15:21:30.458Z,9.83
2018-06-08T15:23:59.196Z,5.22
2018-06-08T15:26:28.060Z,7.80
2018-06-08T15:28:56.781Z,6.70
2018-06-08T15:31:25.969Z,7.03
2018-06-08T15:33:54.633Z,7.78
2018-06-08T15:36:23.462Z,9.25
2018-06-08T15:38:51.883Z,7.58
2018-06-08T15:41:20.729Z,8.28
2018-06-08T15:43:49.381Z,8.05
2018-06-08T15:46:18.054Z,8.40
2018-06-08T15:48:46.850Z,11.33
2018-06-08T15:51:15.561Z,6.97
2018-06-08T15:53:43.951Z,7.17
2018-06-08T15:56:12.667Z,7.05
2018-06-08T15:58:41.477Z,8.30
2018-06-08T16:01:10.240Z,8.13
2018-06-08T16:03:39.191Z,8.23
2018-06-08T16:06:07.893Z,6.87
2018-06-08T16:08:36.639Z,8.60
2018-06-08T16:11:05.509Z,7.07
2018-06-08T16:13:34.424Z,8.15
2018-06-08T16:16:03.175Z,9.28
2018-06-08T16:18:31.948Z,8.27
2018-06-08T16:21:01.023Z,7.08
2018-06-08T16:23:29.758Z,7.12
2018-06-08T16:25:58.522Z,7.65
2018-06-08T16:28:27.505Z,9.13
2018-06-08T16:30:57.195Z,9.35
2018-06-08T16:33:25.996Z,8.87
2018-06-08T16:35:54.735Z,9.40
2018-06-08T16:38:23.496Z,9.55
2018-06-08T16:40:52.224Z,10.68
2018-06-08T16:43:20.970Z,10.37
2018-06-08T16:45:49.849Z,8.38
2018-06-08T16:48:18.679Z,8.83
2018-06-08T16:50:47.573Z,8.57
2018-06-08T16:53:18.976Z,9.88
2018-06-08T16:55:47.712Z,9.98
2018-06-08T16:58:17.075Z,8.48
2018-06-08T17:00:45.733Z,10.65
2018-06-08T17:03:14.784Z,10.30
2018-06-08T17:05:43.678Z,9.40
2018-06-08T17:08:12.591Z,7.05
2018-06-08T17:10:41.570Z,10.78
2018-06-08T17:13:10.217Z,7.62
2018-06-08T17:15:39.313Z,10.08
2018-06-08T17:18:08.160Z,11.08
2018-06-08T17:20:37.007Z,10.50
2018-06-08T17:23:05.796Z,11.80
2018-06-08T17:25:34.450Z,12.45
2018-06-08T17:28:03.148Z,10.70
2018-06-08T17:30:31.998Z,9.93
2018-06-08T17:33:00.674Z,11.48
2018-06-08T17:35:29.116Z,9.70
2018-06-08T17:37:57.827Z,10.63
2018-06-08T17:40:26.490Z,46.33
2018-06-08T17:42:55.391Z,9.77
2018-06-08T17:45:24.125Z,10.43
2018-06-08T17:47:52.915Z,8.50
2018-06-08T17:50:21.275Z,9.20
2018-06-08T17:52:50.262Z,10.07
2018-06-08T17:55:18.966Z,8.73
2018-06-08T17:57:47.420Z,11.88
2018-06-08T18:00:16.156Z,8.58
2018-06-08T18:02:45.018Z,8.40
2018-06-08T18:05:13.750Z,9.80
2018-06-08T18:07:42.907Z,8.65
2018-06-08T18:10:12.367Z,9.50
2018-06-08T18:12:40.793Z,8.43
2018-06-08T18:15:09.647Z,9.35
2018-06-08T18:17:38.693Z,7.97
2018-06-08T18:20:07.471Z,9.40
2018-06-08T18:22:36.197Z,8.73
2018-06-08T18:25:05.109Z,8.80
2018-06-08T18:27:34.189Z,8.43
2018-06-08T18:30:03.031Z,10.50
2018-06-08T18:32:31.725Z,7.47
2018-06-08T18:35:00.496Z,8.93
2018-06-08T18:37:29.172Z,10.35
2018-06-08T18:39:57.857Z,10.20
2018-06-08T18:42:26.519Z,8.87
2018-06-08T18:44:55.264Z,9.73
2018-06-08T18:47:24.966Z,33.02
2018-06-08T18:49:53.718Z,7.97
2018-06-08T18:52:22.389Z,7.45
2018-06-08T18:54:50.819Z,9.73
2018-06-08T18:57:19.598Z,8.23
2018-06-08T18:59:48.421Z,9.27
2018-06-08T19:02:18.074Z,8.98
2018-06-08T19:04:47.037Z,9.13
2018-06-08T19:07:15.931Z,7.43
2018-06-08T19:09:44.564Z,7.53
2018-06-08T19:12:13.288Z,9.10
2018-06-08T19:14:42.122Z,10.13
2018-06-08T19:17:11.026Z,9.70
2018-06-08T19:19:45.524Z,6.77
2018-06-08T19:22:22.766Z,8.23
2018-06-08T19:24:52.043Z,9.40
2018-06-08T19:27:20.814Z,9.43
2018-06-08T19:29:49.543Z,8.18
2018-06-08T19:32:18.393Z,8.65
2018-06-08T19:34:47.200Z,9.37
2018-06-08T19:41:51.786Z,9.40
2018-06-08T19:44:20.553Z,9.20
2018-06-08T19:46:49.498Z,9.10
2018-06-08T19:49:18.210Z,8.35
2018-06-08T19:51:47.070Z,10.33
2018-06-08T19:54:15.989Z,9.15
2018-06-08T19:56:44.463Z,10.30
2018-06-08T19:59:13.545Z,10.63
2018-06-08T20:01:42.021Z,7.35
2018-06-08T20:04:10.639Z,8.07
2018-06-08T20:06:39.806Z,10.43
2018-06-08T20:09:08.727Z,9.63
2018-06-08T20:11:37.463Z,9.40
2018-06-08T20:14:06.219Z,8.25
2018-06-08T20:16:35.419Z,11.35
2018-06-08T20:19:04.286Z,11.40
2018-06-08T20:21:32.752Z,12.63
2018-06-08T20:24:01.503Z,11.68
2018-06-08T20:26:30.333Z,9.57
2018-06-08T20:28:59.472Z,8.93
2018-06-08T20:31:28.159Z,10.78
2018-06-08T20:33:56.882Z,9.00
2018-06-08T20:36:25.734Z,9.18
2018-06-08T20:38:54.170Z,9.85
2018-06-08T20:41:22.810Z,10.15
2018-06-08T20:43:51.709Z,12.53
2018-06-08T20:46:20.455Z,10.35
2018-06-08T20:48:49.602Z,9.35
2018-06-08T20:51:18.341Z,10.38
2018-06-08T20:53:47.137Z,8.30
2018-06-08T20:56:16.008Z,9.93
2018-06-08T20:58:44.730Z,10.93
2018-06-08T21:01:13.654Z,11.85
2018-06-08T21:03:42.352Z,10.27
2018-06-08T21:06:11.111Z,10.50
2018-06-08T21:08:39.941Z,9.90
2018-06-08T21:11:08.632Z,9.30
2018-06-08T21:13:37.453Z,11.93
2018-06-08T21:16:06.400Z,8.57
2018-06-08T21:18:35.136Z,9.83
2018-06-08T21:21:03.796Z,11.33
2018-06-08T21:23:33.140Z,9.45
2018-06-08T21:26:01.802Z,11.00
2018-06-08T21:28:30.161Z,12.93
2018-06-08T21:30:58.851Z,11.97
2018-06-08T21:33:27.548Z,9.70
2018-06-08T21:35:56.357Z,10.25
2018-06-08T21:38:25.092Z,10.08
2018-06-08T21:40:53.644Z,9.70
2018-06-08T21:43:22.407Z,9.50
2018-06-08T21:45:50.742Z,11.83
2018-06-08T21:48:19.499Z,11.63
2018-06-08T21:50:48.338Z,9.70
2018-06-08T21:53:16.967Z,11.15
2018-06-08T21:55:45.710Z,10.20
2018-06-08T21:58:14.525Z,9.75
2018-06-08T22:00:43.786Z,8.90
2018-06-08T22:03:12.678Z,9.25
2018-06-08T22:05:41.836Z,10.93
2018-06-08T22:08:10.664Z,9.23
2018-06-08T22:10:39.525Z,9.30
2018-06-08T22:13:08.428Z,9.23
2018-06-08T22:15:37.157Z,10.50
2018-06-08T22:18:05.883Z,8.23
2018-06-08T22:20:34.557Z,10.50
2018-06-08T22:23:02.947Z,9.43
2018-06-08T22:25:38.923Z,8.78
2018-06-08T22:28:18.960Z,10.28
2018-06-08T22:30:56.875Z,10.37
2018-06-08T22:33:26.372Z,10.58
2018-06-08T22:35:55.042Z,8.73
2018-06-08T22:38:23.938Z,11.48
2018-06-08T22:40:52.676Z,11.33
2018-06-08T22:43:21.526Z,12.07
2018-06-08T22:45:50.248Z,11.70
2018-06-08T22:48:20.208Z,9.75
2018-06-08T22:50:49.086Z,10.63
2018-06-08T22:53:18.015Z,9.60
2018-06-08T22:55:46.858Z,9.93
2018-06-08T22:58:15.222Z,11.28
2018-06-08T23:00:44.753Z,10.00
2018-06-08T23:03:13.509Z,10.70
2018-06-08T23:05:42.695Z,7.87
2018-06-08T23:08:11.386Z,9.18
2018-06-08T23:10:40.592Z,8.43
2018-06-08T23:13:09.270Z,10.90
2018-06-08T23:15:38.088Z,7.35
2018-06-08T23:18:06.565Z,8.95
2018-06-08T23:20:35.407Z,10.47
2018-06-08T23:23:04.232Z,9.30
2018-06-08T23:25:32.951Z,11.05
2018-06-08T23:28:01.812Z,9.50
2018-06-08T23:30:30.524Z,9.25
2018-06-08T23:32:59.203Z,8.05
2018-06-08T23:35:27.732Z,9.13
2018-06-08T23:37:56.621Z,9.58
2018-06-08T23:40:25.326Z,10.47
2018-06-08T23:42:54.469Z,7.87
2018-06-08T23:45:23.470Z,10.10
2018-06-08T23:47:52.263Z,8.63
2018-06-08T23:50:20.680Z,10.72
2018-06-08T23:52:49.387Z,8.25
2018-06-08T23:55:18.141Z,8.80
2018-06-08T23:57:46.973Z,7.37
